sensor_id;sensor_type;location;lat;lon;timestamp;P1;durP1;ratioP1;P2;durP2;ratioP2
8626;SDS011;4351;51.422;6.794;2023-05-07T00:00:45;4.60;;;2.97;;
8626;SDS011;4351;51.422;6.794;2023-05-07T00:03:13;4.40;;;2.80;;
8626;SDS011;4351;51.422;6.794;2023-05-07T00:05:41;5.67;;;2.80;;
8626;SDS011;4351;51.422;6.794;2023-05-07T00:08:08;7.30;;;2.73;;
8626;SDS011;4351;51.422;6.794;2023-05-07T00:10:36;6.03;;;3.20;;
8626;SDS011;4351;51.422;6.794;2023-05-07T00:13:04;3.73;;;2.63;;
8626;SDS011;4351;51.422;6.794;2023-05-07T00:15:32;4.30;;;2.87;;
8626;SDS011;4351;51.422;6.794;2023-05-07T00:18:01;4.90;;;3.00;;
8626;SDS011;4351;51.422;6.794;2023-05-07T00:20:29;3.83;;;2.60;;
8626;SDS011;4351;51.422;6.794;2023-05-07T00:22:59;4.53;;;3.07;;
8626;SDS011;4351;51.422;6.794;2023-05-07T00:25:27;4.17;;;2.50;;
8626;SDS011;4351;51.422;6.794;2023-05-07T00:27:54;4.07;;;2.70;;
8626;SDS011;4351;51.422;6.794;2023-05-07T00:30:23;4.17;;;2.80;;
8626;SDS011;4351;51.422;6.794;2023-05-07T00:32:51;4.10;;;3.13;;
8626;SDS011;4351;51.422;6.794;2023-05-07T00:35:20;5.10;;;3.20;;
8626;SDS011;4351;51.422;6.794;2023-05-07T00:37:48;5.10;;;3.33;;
8626;SDS011;4351;51.422;6.794;2023-05-07T00:40:16;5.33;;;3.80;;
8626;SDS011;4351;51.422;6.794;2023-05-07T00:42:44;5.20;;;3.87;;
8626;SDS011;4351;51.422;6.794;2023-05-07T00:45:13;4.07;;;3.67;;
8626;SDS011;4351;51.422;6.794;2023-05-07T00:47:42;5.77;;;3.90;;
8626;SDS011;4351;51.422;6.794;2023-05-07T00:50:10;5.80;;;3.73;;
8626;SDS011;4351;51.422;6.794;2023-05-07T00:52:40;5.97;;;4.10;;
8626;SDS011;4351;51.422;6.794;2023-05-07T00:55:09;5.53;;;4.40;;
8626;SDS011;4351;51.422;6.794;2023-05-07T00:57:37;5.83;;;4.00;;
8626;SDS011;4351;51.422;6.794;2023-05-07T01:00:07;4.50;;;3.87;;
8626;SDS011;4351;51.422;6.794;2023-05-07T01:02:37;5.60;;;3.60;;
8626;SDS011;4351;51.422;6.794;2023-05-07T01:05:05;4.03;;;3.63;;
8626;SDS011;4351;51.422;6.794;2023-05-07T01:07:37;6.37;;;4.27;;
8626;SDS011;4351;51.422;6.794;2023-05-07T01:10:09;7.23;;;3.60;;
8626;SDS011;4351;51.422;6.794;2023-05-07T01:12:39;4.57;;;4.00;;
8626;SDS011;4351;51.422;6.794;2023-05-07T01:15:08;4.40;;;3.53;;
8626;SDS011;4351;51.422;6.794;2023-05-07T01:17:39;6.37;;;3.60;;
8626;SDS011;4351;51.422;6.794;2023-05-07T01:20:15;3.60;;;3.23;;
8626;SDS011;4351;51.422;6.794;2023-05-07T01:22:45;5.27;;;3.50;;
8626;SDS011;4351;51.422;6.794;2023-05-07T01:25:13;4.93;;;3.63;;
8626;SDS011;4351;51.422;6.794;2023-05-07T01:27:46;4.70;;;3.53;;
8626;SDS011;4351;51.422;6.794;2023-05-07T01:30:14;5.17;;;3.77;;
8626;SDS011;4351;51.422;6.794;2023-05-07T01:32:45;6.17;;;3.70;;
8626;SDS011;4351;51.422;6.794;2023-05-07T01:35:17;6.77;;;4.10;;
8626;SDS011;4351;51.422;6.794;2023-05-07T01:37:48;4.67;;;3.67;;
8626;SDS011;4351;51.422;6.794;2023-05-07T01:40:17;5.27;;;4.40;;
8626;SDS011;4351;51.422;6.794;2023-05-07T01:42:45;6.60;;;3.90;;
8626;SDS011;4351;51.422;6.794;2023-05-07T01:45:14;5.87;;;4.33;;
8626;SDS011;4351;51.422;6.794;2023-05-07T01:47:42;7.27;;;4.60;;
8626;SDS011;4351;51.422;6.794;2023-05-07T01:50:11;5.93;;;4.67;;
8626;SDS011;4351;51.422;6.794;2023-05-07T01:52:40;6.80;;;5.43;;
8626;SDS011;4351;51.422;6.794;2023-05-07T01:55:09;9.53;;;5.47;;
8626;SDS011;4351;51.422;6.794;2023-05-07T01:57:37;7.33;;;5.27;;
8626;SDS011;4351;51.422;6.794;2023-05-07T02:00:06;8.10;;;5.40;;
8626;SDS011;4351;51.422;6.794;2023-05-07T02:02:41;7.40;;;5.20;;
8626;SDS011;4351;51.422;6.794;2023-05-07T02:05:20;7.37;;;5.40;;
8626;SDS011;4351;51.422;6.794;2023-05-07T02:07:55;5.90;;;5.30;;
8626;SDS011;4351;51.422;6.794;2023-05-07T02:10:26;6.37;;;5.17;;
8626;SDS011;4351;51.422;6.794;2023-05-07T02:12:54;7.37;;;4.87;;
8626;SDS011;4351;51.422;6.794;2023-05-07T02:15:23;7.37;;;5.10;;
8626;SDS011;4351;51.422;6.794;2023-05-07T02:17:57;7.87;;;5.40;;
8626;SDS011;4351;51.422;6.794;2023-05-07T02:20:27;8.30;;;5.10;;
8626;SDS011;4351;51.422;6.794;2023-05-07T02:22:55;7.57;;;4.87;;
8626;SDS011;4351;51.422;6.794;2023-05-07T02:25:27;6.87;;;5.10;;
8626;SDS011;4351;51.422;6.794;2023-05-07T02:27:55;5.80;;;4.53;;
8626;SDS011;4351;51.422;6.794;2023-05-07T02:30:32;7.33;;;4.73;;
8626;SDS011;4351;51.422;6.794;2023-05-07T02:33:00;7.03;;;4.50;;
8626;SDS011;4351;51.422;6.794;2023-05-07T02:35:28;5.07;;;4.50;;
8626;SDS011;4351;51.422;6.794;2023-05-07T02:37:56;5.33;;;4.67;;
8626;SDS011;4351;51.422;6.794;2023-05-07T02:40:24;7.03;;;4.90;;
8626;SDS011;4351;51.422;6.794;2023-05-07T02:42:54;4.63;;;4.20;;
8626;SDS011;4351;51.422;6.794;2023-05-07T02:45:22;6.87;;;4.77;;
8626;SDS011;4351;51.422;6.794;2023-05-07T02:47:52;6.80;;;4.43;;
8626;SDS011;4351;51.422;6.794;2023-05-07T02:50:20;6.17;;;4.53;;
8626;SDS011;4351;51.422;6.794;2023-05-07T02:52:47;5.53;;;4.10;;
8626;SDS011;4351;51.422;6.794;2023-05-07T02:55:15;5.97;;;4.53;;
8626;SDS011;4351;51.422;6.794;2023-05-07T02:57:43;5.93;;;4.57;;
8626;SDS011;4351;51.422;6.794;2023-05-07T03:00:14;8.27;;;5.03;;
8626;SDS011;4351;51.422;6.794;2023-05-07T03:02:59;5.30;;;4.43;;
8626;SDS011;4351;51.422;6.794;2023-05-07T03:05:27;6.27;;;5.00;;
8626;SDS011;4351;51.422;6.794;2023-05-07T03:07:55;6.60;;;4.93;;
8626;SDS011;4351;51.422;6.794;2023-05-07T03:10:23;7.23;;;5.30;;
8626;SDS011;4351;51.422;6.794;2023-05-07T03:12:51;7.20;;;5.63;;
8626;SDS011;4351;51.422;6.794;2023-05-07T03:15:20;6.30;;;4.57;;
8626;SDS011;4351;51.422;6.794;2023-05-07T03:17:48;6.53;;;5.07;;
8626;SDS011;4351;51.422;6.794;2023-05-07T03:20:16;5.50;;;4.80;;
8626;SDS011;4351;51.422;6.794;2023-05-07T03:22:44;6.30;;;5.30;;
8626;SDS011;4351;51.422;6.794;2023-05-07T03:25:12;7.20;;;5.27;;
8626;SDS011;4351;51.422;6.794;2023-05-07T03:27:40;6.70;;;5.60;;
8626;SDS011;4351;51.422;6.794;2023-05-07T03:30:09;8.17;;;5.40;;
8626;SDS011;4351;51.422;6.794;2023-05-07T03:32:40;9.07;;;5.53;;
8626;SDS011;4351;51.422;6.794;2023-05-07T03:35:10;7.30;;;6.10;;
8626;SDS011;4351;51.422;6.794;2023-05-07T03:37:39;6.53;;;5.30;;
8626;SDS011;4351;51.422;6.794;2023-05-07T03:40:09;7.57;;;5.60;;
8626;SDS011;4351;51.422;6.794;2023-05-07T03:42:46;8.50;;;6.10;;
8626;SDS011;4351;51.422;6.794;2023-05-07T03:45:15;6.97;;;5.20;;
8626;SDS011;4351;51.422;6.794;2023-05-07T03:47:50;5.70;;;5.03;;
8626;SDS011;4351;51.422;6.794;2023-05-07T03:50:20;7.50;;;5.20;;
8626;SDS011;4351;51.422;6.794;2023-05-07T03:52:48;7.57;;;4.93;;
8626;SDS011;4351;51.422;6.794;2023-05-07T03:55:19;7.43;;;5.83;;
8626;SDS011;4351;51.422;6.794;2023-05-07T03:57:52;5.20;;;4.50;;
8626;SDS011;4351;51.422;6.794;2023-05-07T04:00:20;5.47;;;4.27;;
8626;SDS011;4351;51.422;6.794;2023-05-07T04:02:49;6.73;;;4.73;;
8626;SDS011;4351;51.422;6.794;2023-05-07T04:05:24;5.83;;;4.90;;
8626;SDS011;4351;51.422;6.794;2023-05-07T04:07:57;6.57;;;4.97;;
8626;SDS011;4351;51.422;6.794;2023-05-07T04:10:33;6.97;;;5.40;;
8626;SDS011;4351;51.422;6.794;2023-05-07T04:13:05;9.17;;;6.80;;
8626;SDS011;4351;51.422;6.794;2023-05-07T04:15:35;7.33;;;6.40;;
8626;SDS011;4351;51.422;6.794;2023-05-07T04:18:07;8.40;;;6.00;;
8626;SDS011;4351;51.422;6.794;2023-05-07T04:20:37;9.10;;;6.57;;
8626;SDS011;4351;51.422;6.794;2023-05-07T04:23:09;10.23;;;6.00;;
8626;SDS011;4351;51.422;6.794;2023-05-07T04:25:37;7.00;;;6.30;;
8626;SDS011;4351;51.422;6.794;2023-05-07T04:28:29;7.90;;;6.70;;
8626;SDS011;4351;51.422;6.794;2023-05-07T04:30:57;7.97;;;5.80;;
8626;SDS011;4351;51.422;6.794;2023-05-07T04:33:27;8.47;;;5.90;;
8626;SDS011;4351;51.422;6.794;2023-05-07T04:35:57;7.97;;;6.20;;
8626;SDS011;4351;51.422;6.794;2023-05-07T04:38:29;7.83;;;6.20;;
8626;SDS011;4351;51.422;6.794;2023-05-07T04:41:02;7.70;;;6.37;;
8626;SDS011;4351;51.422;6.794;2023-05-07T04:43:34;9.13;;;6.50;;
8626;SDS011;4351;51.422;6.794;2023-05-07T04:46:02;9.63;;;6.67;;
8626;SDS011;4351;51.422;6.794;2023-05-07T04:48:31;7.83;;;6.63;;
8626;SDS011;4351;51.422;6.794;2023-05-07T04:51:01;8.83;;;6.43;;
8626;SDS011;4351;51.422;6.794;2023-05-07T04:53:29;7.03;;;5.83;;
8626;SDS011;4351;51.422;6.794;2023-05-07T04:55:57;7.97;;;6.20;;
8626;SDS011;4351;51.422;6.794;2023-05-07T04:58:31;8.60;;;7.03;;
8626;SDS011;4351;51.422;6.794;2023-05-07T05:00:59;10.53;;;6.70;;
8626;SDS011;4351;51.422;6.794;2023-05-07T05:03:28;6.97;;;5.80;;
8626;SDS011;4351;51.422;6.794;2023-05-07T05:05:59;9.43;;;6.97;;
8626;SDS011;4351;51.422;6.794;2023-05-07T05:08:31;7.73;;;6.60;;
8626;SDS011;4351;51.422;6.794;2023-05-07T05:11:01;8.10;;;6.67;;
8626;SDS011;4351;51.422;6.794;2023-05-07T05:13:31;9.90;;;7.03;;
8626;SDS011;4351;51.422;6.794;2023-05-07T05:16:04;9.77;;;7.13;;
8626;SDS011;4351;51.422;6.794;2023-05-07T05:18:34;10.03;;;7.80;;
8626;SDS011;4351;51.422;6.794;2023-05-07T05:21:03;12.13;;;8.23;;
8626;SDS011;4351;51.422;6.794;2023-05-07T05:23:32;11.97;;;8.40;;
8626;SDS011;4351;51.422;6.794;2023-05-07T05:26:00;11.57;;;9.70;;
8626;SDS011;4351;51.422;6.794;2023-05-07T05:28:30;10.63;;;8.10;;
8626;SDS011;4351;51.422;6.794;2023-05-07T05:30:58;12.83;;;9.43;;
8626;SDS011;4351;51.422;6.794;2023-05-07T05:33:30;14.97;;;10.40;;
8626;SDS011;4351;51.422;6.794;2023-05-07T05:36:05;10.97;;;9.77;;
8626;SDS011;4351;51.422;6.794;2023-05-07T05:38:35;10.57;;;8.90;;
8626;SDS011;4351;51.422;6.794;2023-05-07T05:41:03;13.57;;;10.33;;
8626;SDS011;4351;51.422;6.794;2023-05-07T05:43:31;13.73;;;10.30;;
8626;SDS011;4351;51.422;6.794;2023-05-07T05:45:59;12.73;;;10.43;;
8626;SDS011;4351;51.422;6.794;2023-05-07T05:48:28;13.97;;;11.77;;
8626;SDS011;4351;51.422;6.794;2023-05-07T05:50:58;12.87;;;10.03;;
8626;SDS011;4351;51.422;6.794;2023-05-07T05:53:27;12.07;;;9.50;;
8626;SDS011;4351;51.422;6.794;2023-05-07T05:55:55;14.80;;;11.23;;
8626;SDS011;4351;51.422;6.794;2023-05-07T05:58:23;15.43;;;11.17;;
8626;SDS011;4351;51.422;6.794;2023-05-07T06:00:56;12.77;;;9.97;;
8626;SDS011;4351;51.422;6.794;2023-05-07T06:03:26;10.70;;;9.60;;
8626;SDS011;4351;51.422;6.794;2023-05-07T06:05:56;12.47;;;10.57;;
8626;SDS011;4351;51.422;6.794;2023-05-07T06:08:25;12.77;;;10.00;;
8626;SDS011;4351;51.422;6.794;2023-05-07T06:10:56;15.67;;;10.73;;
8626;SDS011;4351;51.422;6.794;2023-05-07T06:13:24;10.17;;;8.83;;
8626;SDS011;4351;51.422;6.794;2023-05-07T06:15:55;12.83;;;10.00;;
8626;SDS011;4351;51.422;6.794;2023-05-07T06:18:22;11.37;;;9.90;;
8626;SDS011;4351;51.422;6.794;2023-05-07T06:20:51;11.67;;;9.03;;
8626;SDS011;4351;51.422;6.794;2023-05-07T06:23:23;12.00;;;9.20;;
8626;SDS011;4351;51.422;6.794;2023-05-07T06:25:53;11.53;;;9.43;;
8626;SDS011;4351;51.422;6.794;2023-05-07T06:28:26;9.10;;;7.80;;
8626;SDS011;4351;51.422;6.794;2023-05-07T06:30:54;9.53;;;7.57;;
8626;SDS011;4351;51.422;6.794;2023-05-07T06:33:22;9.07;;;7.67;;
8626;SDS011;4351;51.422;6.794;2023-05-07T06:35:50;7.40;;;6.27;;
8626;SDS011;4351;51.422;6.794;2023-05-07T06:38:19;10.40;;;8.03;;
8626;SDS011;4351;51.422;6.794;2023-05-07T06:40:49;11.10;;;7.23;;
8626;SDS011;4351;51.422;6.794;2023-05-07T06:43:18;7.43;;;6.23;;
8626;SDS011;4351;51.422;6.794;2023-05-07T06:45:53;7.60;;;5.70;;
8626;SDS011;4351;51.422;6.794;2023-05-07T06:48:21;6.87;;;5.60;;
8626;SDS011;4351;51.422;6.794;2023-05-07T06:50:55;7.50;;;5.93;;
8626;SDS011;4351;51.422;6.794;2023-05-07T06:53:24;12.83;;;7.33;;
8626;SDS011;4351;51.422;6.794;2023-05-07T06:55:54;7.80;;;6.50;;
8626;SDS011;4351;51.422;6.794;2023-05-07T06:58:24;9.27;;;6.80;;
8626;SDS011;4351;51.422;6.794;2023-05-07T07:00:52;11.07;;;6.27;;
8626;SDS011;4351;51.422;6.794;2023-05-07T07:03:20;8.27;;;6.03;;
8626;SDS011;4351;51.422;6.794;2023-05-07T07:05:51;7.47;;;5.47;;
8626;SDS011;4351;51.422;6.794;2023-05-07T07:08:19;7.10;;;5.20;;
8626;SDS011;4351;51.422;6.794;2023-05-07T07:10:48;7.93;;;5.83;;
8626;SDS011;4351;51.422;6.794;2023-05-07T07:13:16;7.77;;;5.37;;
8626;SDS011;4351;51.422;6.794;2023-05-07T07:15:46;6.17;;;4.90;;
8626;SDS011;4351;51.422;6.794;2023-05-07T07:18:14;6.00;;;4.93;;
8626;SDS011;4351;51.422;6.794;2023-05-07T07:20:42;7.23;;;4.60;;
8626;SDS011;4351;51.422;6.794;2023-05-07T07:23:10;5.47;;;4.47;;
8626;SDS011;4351;51.422;6.794;2023-05-07T07:25:38;5.43;;;4.43;;
8626;SDS011;4351;51.422;6.794;2023-05-07T07:28:07;6.23;;;4.30;;
8626;SDS011;4351;51.422;6.794;2023-05-07T07:30:36;6.93;;;4.17;;
8626;SDS011;4351;51.422;6.794;2023-05-07T07:33:06;6.10;;;4.23;;
8626;SDS011;4351;51.422;6.794;2023-05-07T07:35:36;6.43;;;4.27;;
8626;SDS011;4351;51.422;6.794;2023-05-07T07:38:05;5.63;;;3.93;;
8626;SDS011;4351;51.422;6.794;2023-05-07T07:40:34;9.53;;;4.23;;
8626;SDS011;4351;51.422;6.794;2023-05-07T07:43:03;7.60;;;4.30;;
8626;SDS011;4351;51.422;6.794;2023-05-07T07:45:32;6.83;;;3.87;;
8626;SDS011;4351;51.422;6.794;2023-05-07T07:48:00;5.93;;;3.73;;
8626;SDS011;4351;51.422;6.794;2023-05-07T07:50:33;4.90;;;4.23;;
8626;SDS011;4351;51.422;6.794;2023-05-07T07:53:12;5.90;;;4.23;;
8626;SDS011;4351;51.422;6.794;2023-05-07T07:55:40;6.83;;;4.50;;
8626;SDS011;4351;51.422;6.794;2023-05-07T07:58:11;7.07;;;4.07;;
8626;SDS011;4351;51.422;6.794;2023-05-07T08:00:39;5.17;;;3.80;;
8626;SDS011;4351;51.422;6.794;2023-05-07T08:03:09;6.57;;;3.93;;
8626;SDS011;4351;51.422;6.794;2023-05-07T08:05:43;4.93;;;3.40;;
8626;SDS011;4351;51.422;6.794;2023-05-07T08:08:11;5.97;;;3.30;;
8626;SDS011;4351;51.422;6.794;2023-05-07T08:10:40;3.80;;;3.30;;
8626;SDS011;4351;51.422;6.794;2023-05-07T08:13:15;6.03;;;3.47;;
8626;SDS011;4351;51.422;6.794;2023-05-07T08:15:46;3.60;;;2.57;;
8626;SDS011;4351;51.422;6.794;2023-05-07T08:18:14;3.67;;;2.73;;
8626;SDS011;4351;51.422;6.794;2023-05-07T08:20:45;3.70;;;2.63;;
8626;SDS011;4351;51.422;6.794;2023-05-07T08:23:17;4.17;;;2.80;;
8626;SDS011;4351;51.422;6.794;2023-05-07T08:25:46;4.00;;;2.30;;
8626;SDS011;4351;51.422;6.794;2023-05-07T08:28:15;3.20;;;2.33;;
8626;SDS011;4351;51.422;6.794;2023-05-07T08:30:43;3.83;;;2.30;;
8626;SDS011;4351;51.422;6.794;2023-05-07T08:33:11;3.67;;;2.10;;
8626;SDS011;4351;51.422;6.794;2023-05-07T08:35:39;2.90;;;2.30;;
8626;SDS011;4351;51.422;6.794;2023-05-07T08:38:11;4.60;;;2.43;;
8626;SDS011;4351;51.422;6.794;2023-05-07T08:40:39;5.23;;;2.40;;
8626;SDS011;4351;51.422;6.794;2023-05-07T08:43:14;3.50;;;2.50;;
8626;SDS011;4351;51.422;6.794;2023-05-07T08:45:43;2.97;;;2.37;;
8626;SDS011;4351;51.422;6.794;2023-05-07T08:48:16;2.60;;;2.30;;
8626;SDS011;4351;51.422;6.794;2023-05-07T08:50:51;3.60;;;2.40;;
8626;SDS011;4351;51.422;6.794;2023-05-07T08:53:21;3.10;;;2.20;;
8626;SDS011;4351;51.422;6.794;2023-05-07T08:55:50;3.63;;;1.90;;
8626;SDS011;4351;51.422;6.794;2023-05-07T08:58:20;4.90;;;2.30;;
8626;SDS011;4351;51.422;6.794;2023-05-07T09:00:48;3.97;;;2.47;;
8626;SDS011;4351;51.422;6.794;2023-05-07T09:03:19;3.40;;;2.97;;
8626;SDS011;4351;51.422;6.794;2023-05-07T09:05:50;4.00;;;2.10;;
8626;SDS011;4351;51.422;6.794;2023-05-07T09:08:24;6.33;;;3.97;;
8626;SDS011;4351;51.422;6.794;2023-05-07T09:10:56;3.90;;;1.83;;
8626;SDS011;4351;51.422;6.794;2023-05-07T09:13:25;4.03;;;2.83;;
8626;SDS011;4351;51.422;6.794;2023-05-07T09:15:55;2.70;;;2.30;;
8626;SDS011;4351;51.422;6.794;2023-05-07T09:18:24;3.20;;;2.50;;
8626;SDS011;4351;51.422;6.794;2023-05-07T09:20:54;3.03;;;2.17;;
8626;SDS011;4351;51.422;6.794;2023-05-07T09:23:26;2.03;;;1.70;;
8626;SDS011;4351;51.422;6.794;2023-05-07T09:25:55;3.33;;;1.63;;
8626;SDS011;4351;51.422;6.794;2023-05-07T09:28:32;4.23;;;1.80;;
8626;SDS011;4351;51.422;6.794;2023-05-07T09:31:00;2.33;;;2.13;;
8626;SDS011;4351;51.422;6.794;2023-05-07T09:33:29;4.57;;;2.23;;
8626;SDS011;4351;51.422;6.794;2023-05-07T09:36:01;2.87;;;1.90;;
8626;SDS011;4351;51.422;6.794;2023-05-07T09:38:33;4.50;;;2.70;;
8626;SDS011;4351;51.422;6.794;2023-05-07T09:41:04;5.33;;;2.43;;
8626;SDS011;4351;51.422;6.794;2023-05-07T09:43:41;2.30;;;2.07;;
8626;SDS011;4351;51.422;6.794;2023-05-07T09:46:12;3.17;;;2.37;;
8626;SDS011;4351;51.422;6.794;2023-05-07T09:48:47;4.17;;;2.00;;
8626;SDS011;4351;51.422;6.794;2023-05-07T09:51:20;2.80;;;1.70;;
8626;SDS011;4351;51.422;6.794;2023-05-07T09:53:55;2.67;;;1.73;;
8626;SDS011;4351;51.422;6.794;2023-05-07T09:56:24;2.73;;;2.00;;
8626;SDS011;4351;51.422;6.794;2023-05-07T09:58:53;2.50;;;1.70;;
8626;SDS011;4351;51.422;6.794;2023-05-07T10:01:23;2.50;;;1.87;;
8626;SDS011;4351;51.422;6.794;2023-05-07T10:03:53;3.10;;;2.10;;
8626;SDS011;4351;51.422;6.794;2023-05-07T10:06:22;4.33;;;2.07;;
8626;SDS011;4351;51.422;6.794;2023-05-07T10:08:51;2.37;;;2.00;;
8626;SDS011;4351;51.422;6.794;2023-05-07T10:11:21;3.80;;;1.90;;
8626;SDS011;4351;51.422;6.794;2023-05-07T10:13:50;2.33;;;1.87;;
8626;SDS011;4351;51.422;6.794;2023-05-07T10:16:20;3.37;;;2.00;;
8626;SDS011;4351;51.422;6.794;2023-05-07T10:18:48;4.20;;;2.03;;
8626;SDS011;4351;51.422;6.794;2023-05-07T10:21:21;2.40;;;1.80;;
8626;SDS011;4351;51.422;6.794;2023-05-07T10:23:57;1.60;;;1.50;;
8626;SDS011;4351;51.422;6.794;2023-05-07T10:26:31;2.73;;;2.20;;
8626;SDS011;4351;51.422;6.794;2023-05-07T10:29:04;3.03;;;1.90;;
8626;SDS011;4351;51.422;6.794;2023-05-07T10:31:48;3.70;;;1.83;;
8626;SDS011;4351;51.422;6.794;2023-05-07T10:34:25;2.67;;;1.70;;
8626;SDS011;4351;51.422;6.794;2023-05-07T10:36:57;3.97;;;2.00;;
8626;SDS011;4351;51.422;6.794;2023-05-07T10:39:26;3.23;;;2.00;;
8626;SDS011;4351;51.422;6.794;2023-05-07T10:41:56;5.27;;;2.27;;
8626;SDS011;4351;51.422;6.794;2023-05-07T10:44:25;2.20;;;1.63;;
8626;SDS011;4351;51.422;6.794;2023-05-07T10:47:06;3.90;;;2.00;;
8626;SDS011;4351;51.422;6.794;2023-05-07T10:49:43;2.83;;;1.97;;
8626;SDS011;4351;51.422;6.794;2023-05-07T10:56:24;2.27;;;1.60;;
8626;SDS011;4351;51.422;6.794;2023-05-07T11:05:34;4.37;;;1.73;;
8626;SDS011;4351;51.422;6.794;2023-05-07T11:08:19;2.33;;;1.90;;
8626;SDS011;4351;51.422;6.794;2023-05-07T11:10:56;3.00;;;2.00;;
8626;SDS011;4351;51.422;6.794;2023-05-07T11:13:48;3.23;;;2.20;;
8626;SDS011;4351;51.422;6.794;2023-05-07T11:16:26;6.17;;;2.03;;
8626;SDS011;4351;51.422;6.794;2023-05-07T11:19:04;3.03;;;1.93;;
8626;SDS011;4351;51.422;6.794;2023-05-07T11:21:40;2.97;;;2.13;;
8626;SDS011;4351;51.422;6.794;2023-05-07T11:24:31;3.13;;;2.10;;
8626;SDS011;4351;51.422;6.794;2023-05-07T11:27:07;2.67;;;2.00;;
8626;SDS011;4351;51.422;6.794;2023-05-07T11:29:35;5.87;;;2.47;;
8626;SDS011;4351;51.422;6.794;2023-05-07T11:32:08;2.63;;;2.00;;
8626;SDS011;4351;51.422;6.794;2023-05-07T11:34:42;2.73;;;1.80;;
8626;SDS011;4351;51.422;6.794;2023-05-07T11:37:13;5.03;;;1.90;;
8626;SDS011;4351;51.422;6.794;2023-05-07T11:40:04;3.40;;;2.37;;
8626;SDS011;4351;51.422;6.794;2023-05-07T11:42:33;3.57;;;2.03;;
8626;SDS011;4351;51.422;6.794;2023-05-07T11:45:04;4.17;;;2.20;;
8626;SDS011;4351;51.422;6.794;2023-05-07T11:47:33;2.23;;;1.90;;
8626;SDS011;4351;51.422;6.794;2023-05-07T11:50:02;4.43;;;1.90;;
8626;SDS011;4351;51.422;6.794;2023-05-07T11:52:34;2.73;;;2.00;;
8626;SDS011;4351;51.422;6.794;2023-05-07T11:55:03;3.00;;;2.07;;
8626;SDS011;4351;51.422;6.794;2023-05-07T11:57:32;3.87;;;2.10;;
8626;SDS011;4351;51.422;6.794;2023-05-07T12:00:00;3.40;;;2.10;;
8626;SDS011;4351;51.422;6.794;2023-05-07T12:02:37;4.23;;;2.30;;
8626;SDS011;4351;51.422;6.794;2023-05-07T12:05:06;2.60;;;1.97;;
8626;SDS011;4351;51.422;6.794;2023-05-07T12:07:36;2.33;;;2.00;;
8626;SDS011;4351;51.422;6.794;2023-05-07T12:10:04;3.10;;;2.00;;
8626;SDS011;4351;51.422;6.794;2023-05-07T12:12:37;2.60;;;2.20;;
8626;SDS011;4351;51.422;6.794;2023-05-07T12:15:07;6.90;;;2.47;;
8626;SDS011;4351;51.422;6.794;2023-05-07T12:17:36;2.73;;;2.27;;
8626;SDS011;4351;51.422;6.794;2023-05-07T12:20:05;2.53;;;1.90;;
8626;SDS011;4351;51.422;6.794;2023-05-07T12:22:36;3.20;;;2.00;;
8626;SDS011;4351;51.422;6.794;2023-05-07T12:25:04;5.43;;;2.40;;
8626;SDS011;4351;51.422;6.794;2023-05-07T12:27:36;2.63;;;2.00;;
8626;SDS011;4351;51.422;6.794;2023-05-07T12:30:05;2.20;;;1.87;;
8626;SDS011;4351;51.422;6.794;2023-05-07T12:32:33;3.67;;;1.90;;
8626;SDS011;4351;51.422;6.794;2023-05-07T12:35:03;2.37;;;2.00;;
8626;SDS011;4351;51.422;6.794;2023-05-07T12:37:33;3.63;;;2.30;;
8626;SDS011;4351;51.422;6.794;2023-05-07T12:40:04;4.00;;;2.40;;
8626;SDS011;4351;51.422;6.794;2023-05-07T12:42:35;3.57;;;2.70;;
8626;SDS011;4351;51.422;6.794;2023-05-07T12:45:07;4.00;;;1.93;;
8626;SDS011;4351;51.422;6.794;2023-05-07T12:47:36;3.77;;;2.20;;
8626;SDS011;4351;51.422;6.794;2023-05-07T12:50:05;2.80;;;2.00;;
8626;SDS011;4351;51.422;6.794;2023-05-07T12:52:34;3.97;;;2.30;;
8626;SDS011;4351;51.422;6.794;2023-05-07T12:55:05;2.10;;;1.90;;
8626;SDS011;4351;51.422;6.794;2023-05-07T12:57:38;2.80;;;2.10;;
8626;SDS011;4351;51.422;6.794;2023-05-07T13:00:07;4.70;;;2.47;;
8626;SDS011;4351;51.422;6.794;2023-05-07T13:02:37;3.60;;;2.80;;
8626;SDS011;4351;51.422;6.794;2023-05-07T13:05:06;3.53;;;2.63;;
8626;SDS011;4351;51.422;6.794;2023-05-07T13:07:36;5.63;;;3.20;;
8626;SDS011;4351;51.422;6.794;2023-05-07T13:10:04;5.03;;;2.80;;
8626;SDS011;4351;51.422;6.794;2023-05-07T13:12:34;4.07;;;2.70;;
8626;SDS011;4351;51.422;6.794;2023-05-07T13:15:02;4.57;;;3.00;;
8626;SDS011;4351;51.422;6.794;2023-05-07T13:17:31;3.57;;;2.63;;
8626;SDS011;4351;51.422;6.794;2023-05-07T13:19:59;3.93;;;2.53;;
8626;SDS011;4351;51.422;6.794;2023-05-07T13:22:27;6.27;;;4.10;;
8626;SDS011;4351;51.422;6.794;2023-05-07T13:24:55;5.07;;;3.33;;
8626;SDS011;4351;51.422;6.794;2023-05-07T13:27:24;6.13;;;3.50;;
8626;SDS011;4351;51.422;6.794;2023-05-07T13:29:52;5.80;;;3.20;;
8626;SDS011;4351;51.422;6.794;2023-05-07T13:32:20;6.73;;;3.70;;
8626;SDS011;4351;51.422;6.794;2023-05-07T13:34:48;5.47;;;3.50;;
8626;SDS011;4351;51.422;6.794;2023-05-07T13:37:15;7.07;;;3.80;;
8626;SDS011;4351;51.422;6.794;2023-05-07T13:39:43;5.53;;;3.97;;
8626;SDS011;4351;51.422;6.794;2023-05-07T13:42:11;6.97;;;4.50;;
8626;SDS011;4351;51.422;6.794;2023-05-07T13:44:41;6.60;;;4.70;;
8626;SDS011;4351;51.422;6.794;2023-05-07T13:47:10;7.03;;;4.03;;
8626;SDS011;4351;51.422;6.794;2023-05-07T13:49:38;6.13;;;3.57;;
8626;SDS011;4351;51.422;6.794;2023-05-07T13:52:06;6.60;;;4.27;;
8626;SDS011;4351;51.422;6.794;2023-05-07T13:54:34;8.10;;;4.13;;
8626;SDS011;4351;51.422;6.794;2023-05-07T13:57:01;5.37;;;3.90;;
8626;SDS011;4351;51.422;6.794;2023-05-07T13:59:29;7.77;;;4.40;;
8626;SDS011;4351;51.422;6.794;2023-05-07T14:01:59;4.73;;;4.07;;
8626;SDS011;4351;51.422;6.794;2023-05-07T14:04:27;6.07;;;4.77;;
8626;SDS011;4351;51.422;6.794;2023-05-07T14:06:54;6.13;;;4.70;;
8626;SDS011;4351;51.422;6.794;2023-05-07T14:09:22;8.30;;;4.73;;
8626;SDS011;4351;51.422;6.794;2023-05-07T14:11:50;6.47;;;4.57;;
8626;SDS011;4351;51.422;6.794;2023-05-07T14:14:18;6.43;;;4.13;;
8626;SDS011;4351;51.422;6.794;2023-05-07T14:16:46;7.17;;;5.40;;
8626;SDS011;4351;51.422;6.794;2023-05-07T14:19:18;7.47;;;5.70;;
8626;SDS011;4351;51.422;6.794;2023-05-07T14:21:45;8.13;;;5.40;;
8626;SDS011;4351;51.422;6.794;2023-05-07T14:24:13;6.77;;;5.57;;
8626;SDS011;4351;51.422;6.794;2023-05-07T14:27:00;10.03;;;6.20;;
8626;SDS011;4351;51.422;6.794;2023-05-07T14:29:27;9.77;;;5.73;;
8626;SDS011;4351;51.422;6.794;2023-05-07T14:31:55;9.20;;;6.80;;
8626;SDS011;4351;51.422;6.794;2023-05-07T14:34:25;7.87;;;5.73;;
8626;SDS011;4351;51.422;6.794;2023-05-07T14:36:52;10.07;;;6.00;;
8626;SDS011;4351;51.422;6.794;2023-05-07T14:39:21;7.83;;;5.90;;
8626;SDS011;4351;51.422;6.794;2023-05-07T14:41:52;8.67;;;6.33;;
8626;SDS011;4351;51.422;6.794;2023-05-07T14:44:20;9.10;;;5.70;;
8626;SDS011;4351;51.422;6.794;2023-05-07T14:46:49;10.60;;;6.33;;
8626;SDS011;4351;51.422;6.794;2023-05-07T14:49:17;7.40;;;6.00;;
8626;SDS011;4351;51.422;6.794;2023-05-07T14:51:47;8.53;;;5.73;;
8626;SDS011;4351;51.422;6.794;2023-05-07T14:54:15;7.03;;;5.50;;
8626;SDS011;4351;51.422;6.794;2023-05-07T14:56:43;8.40;;;5.13;;
8626;SDS011;4351;51.422;6.794;2023-05-07T14:59:11;9.40;;;6.70;;
8626;SDS011;4351;51.422;6.794;2023-05-07T15:01:39;12.10;;;6.80;;
8626;SDS011;4351;51.422;6.794;2023-05-07T15:04:11;9.23;;;5.63;;
8626;SDS011;4351;51.422;6.794;2023-05-07T15:06:41;7.57;;;6.10;;
8626;SDS011;4351;51.422;6.794;2023-05-07T15:09:10;11.77;;;6.17;;
8626;SDS011;4351;51.422;6.794;2023-05-07T15:11:38;15.67;;;7.57;;
8626;SDS011;4351;51.422;6.794;2023-05-07T15:14:06;16.37;;;7.90;;
8626;SDS011;4351;51.422;6.794;2023-05-07T15:16:34;13.77;;;6.10;;
8626;SDS011;4351;51.422;6.794;2023-05-07T15:19:02;17.77;;;8.93;;
8626;SDS011;4351;51.422;6.794;2023-05-07T15:21:30;13.40;;;8.27;;
8626;SDS011;4351;51.422;6.794;2023-05-07T15:24:00;16.67;;;7.73;;
8626;SDS011;4351;51.422;6.794;2023-05-07T15:26:30;11.60;;;6.97;;
8626;SDS011;4351;51.422;6.794;2023-05-07T15:28:57;14.87;;;8.30;;
8626;SDS011;4351;51.422;6.794;2023-05-07T15:31:25;13.93;;;8.07;;
8626;SDS011;4351;51.422;6.794;2023-05-07T15:33:53;13.53;;;8.33;;
8626;SDS011;4351;51.422;6.794;2023-05-07T15:36:22;12.33;;;8.27;;
8626;SDS011;4351;51.422;6.794;2023-05-07T15:38:50;12.97;;;7.93;;
8626;SDS011;4351;51.422;6.794;2023-05-07T15:41:20;10.90;;;8.00;;